createdAt,value
2023-04-17T00:04:06.162Z,8.60
2023-04-17T00:09:10.292Z,8.60
2023-04-17T00:14:15.077Z,8.50
2023-04-17T00:19:18.639Z,8.50
2023-04-17T00:24:22.312Z,8.50
2023-04-17T00:29:27.279Z,8.50
2023-04-17T00:34:31.107Z,8.50
2023-04-17T00:39:34.601Z,8.50
2023-04-17T00:44:39.545Z,8.50
2023-04-17T00:49:43.370Z,8.50
2023-04-17T00:54:47.166Z,8.50
2023-04-17T00:59:52.408Z,8.50
2023-04-17T01:04:56.092Z,8.50
2023-04-17T01:10:00.623Z,8.50
2023-04-17T01:15:06.244Z,8.50
2023-04-17T01:20:11.291Z,8.50
2023-04-17T01:25:16.184Z,8.50
2023-04-17T01:30:20.016Z,8.50
2023-04-17T01:35:32.558Z,8.40
2023-04-17T01:40:37.495Z,8.30
2023-04-17T01:45:41.215Z,8.30
2023-04-17T01:50:45.236Z,8.30
2023-04-17T01:55:50.467Z,8.20
2023-04-17T02:00:54.069Z,8.20
2023-04-17T02:05:57.719Z,8.10
2023-04-17T02:11:02.400Z,8.10
2023-04-17T02:16:06.345Z,8.10
2023-04-17T02:21:10.872Z,8.10
2023-04-17T02:26:16.338Z,8.10
2023-04-17T02:31:21.354Z,8.00
2023-04-17T02:36:26.790Z,8.00
2023-04-17T02:41:31.793Z,8.00
2023-04-17T02:46:35.150Z,8.00
2023-04-17T02:51:39.835Z,8.00
2023-04-17T02:56:44.842Z,8.00
2023-04-17T03:01:48.604Z,8.00
2023-04-17T03:06:55.170Z,8.00
2023-04-17T03:12:00.329Z,8.00
2023-04-17T03:17:04.011Z,8.00
2023-04-17T03:22:07.628Z,8.00
2023-04-17T03:27:12.643Z,8.00
2023-04-17T03:32:18.953Z,8.00
2023-04-17T03:37:23.125Z,8.00
2023-04-17T03:42:29.865Z,7.90
2023-04-17T03:47:33.640Z,7.90
2023-04-17T03:52:37.797Z,7.90
2023-04-17T03:57:43.494Z,7.90
2023-04-17T04:02:47.941Z,7.90
2023-04-17T04:07:56.626Z,7.80
2023-04-17T04:13:11.689Z,7.80
2023-04-17T04:18:17.392Z,7.80
2023-04-17T04:23:21.307Z,7.80
2023-04-17T04:28:28.325Z,7.90
2023-04-17T04:33:32.093Z,7.90
2023-04-17T04:38:35.944Z,7.90
2023-04-17T04:43:48.222Z,7.90
2023-04-17T04:48:51.624Z,7.90
2023-04-17T04:53:55.130Z,7.90
2023-04-17T04:59:01.053Z,7.90
2023-04-17T05:04:08.785Z,7.90
2023-04-17T05:09:13.658Z,7.90
2023-04-17T05:14:20.690Z,7.90
2023-04-17T05:19:24.914Z,7.90
2023-04-17T05:24:35.795Z,7.90
2023-04-17T05:29:40.767Z,8.00
2023-04-17T05:34:45.110Z,8.00
2023-04-17T05:39:49.092Z,8.00
2023-04-17T05:44:53.878Z,8.00
2023-04-17T05:49:58.903Z,8.00
2023-04-17T05:55:05.747Z,8.00
2023-04-17T06:00:13.658Z,8.00
2023-04-17T06:05:23.398Z,8.10
2023-04-17T06:10:27.198Z,8.10
2023-04-17T06:15:32.276Z,8.00
2023-04-17T06:20:38.684Z,8.00
2023-04-17T06:25:43.976Z,8.00
2023-04-17T06:30:49.172Z,8.00
2023-04-17T06:35:53.024Z,8.00
2023-04-17T06:41:05.046Z,8.10
2023-04-17T06:46:10.246Z,8.20
2023-04-17T06:51:13.867Z,8.30
2023-04-17T06:56:17.509Z,8.40
2023-04-17T07:01:22.525Z,8.40
2023-04-17T07:06:26.549Z,8.50
2023-04-17T07:11:30.241Z,8.40
2023-04-17T07:16:35.342Z,8.50
2023-04-17T07:21:39.073Z,8.60
2023-04-17T07:26:43.367Z,8.70
2023-04-17T07:31:47.988Z,8.80
2023-04-17T07:36:51.955Z,8.80
2023-04-17T07:41:56.274Z,9.00
2023-04-17T07:47:01.004Z,9.20
2023-04-17T07:52:04.607Z,9.50
2023-04-17T07:57:08.311Z,9.50
2023-04-17T08:02:13.006Z,9.50
2023-04-17T08:07:18.244Z,9.60
2023-04-17T08:12:21.494Z,9.70
2023-04-17T08:17:26.319Z,10.00
2023-04-17T08:22:29.824Z,10.20
2023-04-17T08:27:33.020Z,10.20
2023-04-17T08:32:41.163Z,10.70
2023-04-17T08:37:46.864Z,10.80
2023-04-17T08:42:51.451Z,10.60
2023-04-17T08:47:56.158Z,10.80
2023-04-17T08:52:59.813Z,11.20
2023-04-17T08:58:04.883Z,11.40
2023-04-17T09:03:12.326Z,11.70
2023-04-17T09:08:17.495Z,11.90
2023-04-17T09:13:24.354Z,12.00
2023-04-17T09:18:31.278Z,12.00
2023-04-17T09:23:49.732Z,11.90
2023-04-17T09:29:08.739Z,11.90
2023-04-17T09:34:15.472Z,12.10
2023-04-17T09:39:20.968Z,12.00
2023-04-17T09:44:28.042Z,12.30
2023-04-17T09:49:35.094Z,12.80
2023-04-17T09:54:40.798Z,13.20
2023-04-17T09:59:45.847Z,13.50
2023-04-17T10:04:50.495Z,13.70
2023-04-17T10:09:53.750Z,13.50
2023-04-17T10:14:57.257Z,13.10
2023-04-17T10:20:35.570Z,13.40
2023-04-17T10:25:38.829Z,13.40
2023-04-17T10:31:01.314Z,13.10
2023-04-17T10:36:06.339Z,13.10
2023-04-17T10:41:11.270Z,13.30
2023-04-17T10:46:15.602Z,13.80
2023-04-17T10:51:42.902Z,14.00
2023-04-17T10:56:48.394Z,13.90
2023-04-17T11:02:01.562Z,14.00
2023-04-17T11:07:07.692Z,14.20
2023-04-17T11:12:13.506Z,14.60
2023-04-17T11:17:17.436Z,14.00
2023-04-17T11:22:23.303Z,14.00
2023-04-17T11:27:26.937Z,14.00
2023-04-17T11:32:37.582Z,13.60
2023-04-17T11:38:14.175Z,14.00
2023-04-17T11:43:18.436Z,14.20
2023-04-17T11:48:23.724Z,14.20
2023-04-17T11:53:28.742Z,14.20
2023-04-17T11:58:32.072Z,13.80
2023-04-17T12:03:37.410Z,13.80
2023-04-17T12:08:47.053Z,14.20
2023-04-17T12:13:50.341Z,14.20
2023-04-17T12:18:54.312Z,14.40
2023-04-17T12:23:59.000Z,15.00
2023-04-17T12:29:03.107Z,14.70
2023-04-17T12:34:06.658Z,14.30
2023-04-17T12:39:13.475Z,13.90
2023-04-17T12:44:17.198Z,13.50
2023-04-17T12:49:21.024Z,13.50
2023-04-17T12:54:25.996Z,13.80
2023-04-17T12:59:29.519Z,13.90
2023-04-17T13:04:33.521Z,13.60
2023-04-17T13:09:38.586Z,13.20
2023-04-17T13:14:42.387Z,13.10
2023-04-17T13:19:46.033Z,13.70
2023-04-17T13:24:51.056Z,14.10
2023-04-17T13:29:55.834Z,13.90
2023-04-17T13:34:59.454Z,13.80
2023-04-17T13:40:05.506Z,13.70
2023-04-17T13:45:09.736Z,13.60
2023-04-17T13:50:13.554Z,13.80
2023-04-17T13:55:18.670Z,13.80
2023-04-17T14:00:22.928Z,14.00
2023-04-17T14:05:26.634Z,14.50
2023-04-17T14:10:31.308Z,14.90
2023-04-17T14:15:34.592Z,14.70
2023-04-17T14:20:37.846Z,14.40
2023-04-17T14:25:43.248Z,14.10
2023-04-17T14:30:46.574Z,13.60
2023-04-17T14:35:50.168Z,13.50
2023-04-17T14:40:55.270Z,13.40
2023-04-17T14:45:58.994Z,13.70
2023-04-17T14:51:02.698Z,14.10
2023-04-17T14:56:08.238Z,14.40
2023-04-17T15:01:12.221Z,14.20
2023-04-17T15:06:16.138Z,14.00
2023-04-17T15:11:21.352Z,13.80
2023-04-17T15:16:25.103Z,13.70
2023-04-17T15:21:28.825Z,13.80
2023-04-17T15:26:34.897Z,13.90
2023-04-17T15:31:40.882Z,14.00
2023-04-17T15:36:44.722Z,13.90
2023-04-17T15:41:50.275Z,13.60
2023-04-17T15:46:53.679Z,13.60
2023-04-17T15:51:57.304Z,13.40
2023-04-17T15:57:02.098Z,13.40
2023-04-17T16:02:06.088Z,13.20
2023-04-17T16:07:11.076Z,12.90
2023-04-17T16:12:15.665Z,12.70
2023-04-17T16:17:19.641Z,12.60
2023-04-17T16:22:23.235Z,12.80
2023-04-17T16:27:29.013Z,13.10
2023-04-17T16:32:32.895Z,12.80
2023-04-17T16:37:36.728Z,12.60
2023-04-17T16:42:42.185Z,12.40
2023-04-17T16:47:45.584Z,12.20
2023-04-17T16:52:51.016Z,12.00
2023-04-17T16:57:56.029Z,11.90
2023-04-17T17:02:59.821Z,11.70
2023-04-17T17:08:03.666Z,11.50
2023-04-17T17:13:08.749Z,11.40
2023-04-17T17:18:12.236Z,11.20
2023-04-17T17:23:15.674Z,11.00
2023-04-17T17:28:20.581Z,10.90
2023-04-17T17:33:24.075Z,10.80
2023-04-17T17:38:29.204Z,10.60
2023-04-17T17:43:34.108Z,10.50
2023-04-17T17:48:37.619Z,10.40
2023-04-17T17:53:41.657Z,10.20
2023-04-17T17:58:46.655Z,10.10
2023-04-17T18:03:50.421Z,10.00
2023-04-17T18:08:54.262Z,9.90
2023-04-17T18:14:01.147Z,9.90
2023-04-17T18:19:05.522Z,9.70
2023-04-17T18:24:09.751Z,9.60
2023-04-17T18:29:14.667Z,9.60
2023-04-17T18:34:19.214Z,9.50
2023-04-17T18:39:22.776Z,9.50
2023-04-17T18:44:27.673Z,9.40
2023-04-17T18:49:31.187Z,9.30
2023-04-17T18:54:34.565Z,9.30
2023-04-17T18:59:40.518Z,9.30
2023-04-17T19:04:45.965Z,9.20
2023-04-17T19:09:49.604Z,9.20
2023-04-17T19:14:56.634Z,9.20
2023-04-17T19:20:00.271Z,9.10
2023-04-17T19:25:03.813Z,9.00
2023-04-17T19:30:10.192Z,8.90
2023-04-17T19:35:14.111Z,8.80
2023-04-17T19:40:24.404Z,8.70
2023-04-17T19:45:32.808Z,8.60
2023-04-17T19:50:36.317Z,8.50
2023-04-17T19:55:41.891Z,8.20
2023-04-17T20:00:46.890Z,7.90
2023-04-17T20:05:51.047Z,7.60
2023-04-17T20:10:54.574Z,7.50
2023-04-17T20:15:59.634Z,7.50
2023-04-17T20:21:02.908Z,7.70
2023-04-17T20:26:08.175Z,7.80
2023-04-17T20:31:12.934Z,7.90
2023-04-17T20:36:16.552Z,8.00
2023-04-17T20:41:20.134Z,8.00
2023-04-17T20:46:25.203Z,8.10
2023-04-17T20:51:28.944Z,8.00
2023-04-17T20:56:32.665Z,8.00
2023-04-17T21:01:37.725Z,8.00
2023-04-17T21:06:41.347Z,8.00
2023-04-17T21:11:45.015Z,8.00
2023-04-17T21:16:50.468Z,8.00
2023-04-17T21:21:54.096Z,8.00
2023-04-17T21:26:59.095Z,8.10
2023-04-17T21:32:04.953Z,8.10
2023-04-17T21:37:08.707Z,8.10
2023-04-17T21:42:12.623Z,8.20
2023-04-17T21:47:19.785Z,8.20
2023-04-17T21:52:23.578Z,8.30
2023-04-17T21:57:27.245Z,8.20
2023-04-17T22:02:32.324Z,8.10
2023-04-17T22:07:47.382Z,8.20
2023-04-17T22:12:58.230Z,8.20
2023-04-17T22:18:02.971Z,8.20
2023-04-17T22:23:06.672Z,8.10
2023-04-17T22:28:10.555Z,8.20
2023-04-17T22:33:15.944Z,8.10
2023-04-17T22:38:21.161Z,8.00
2023-04-17T22:43:24.842Z,8.00
2023-04-17T22:48:29.732Z,8.00
2023-04-17T22:53:33.460Z,8.00
2023-04-17T22:58:37.497Z,7.90
2023-04-17T23:03:42.522Z,7.80
2023-04-17T23:08:46.340Z,7.80
2023-04-17T23:13:50.108Z,7.80
2023-04-17T23:18:55.072Z,7.80
2023-04-17T23:23:58.884Z,7.80
2023-04-17T23:29:02.478Z,7.80
2023-04-17T23:34:07.664Z,7.70
2023-04-17T23:39:11.491Z,7.70
2023-04-17T23:44:15.371Z,7.70
2023-04-17T23:49:20.453Z,7.70
2023-04-17T23:54:24.191Z,7.70
2023-04-17T23:59:27.831Z,7.70
